Freedom, Pennsylvania
Current Conditions -  °F | °C
As of 12:47 PM on Thursday 18 Dec 2014 (Local Time) from KBVI Reporting Station
Overcast Overcast  
Wind Chill: 20°   Ceiling: 1700
Heat Index: 28°   Visibility: 10mi
Dew Point: 23°   Wind: 8mph
Humidity: 80%   Direction: 250°WSW
Pressure: 30.15"   Gusts: NA
Location:  40.69°N, 80.25°W
Report Text: KBVI 181747Z 25007KT 10SM BKN017 OVC024 M02/M05 A3015
Loading
Personal Weather Stations






























Interactive Weather Map New forecast layout! Learn more

10-Day Weather Forecast

Advertisements
Track Severe Weather on mobile